sensor_id;sensor_type;location;lat;lon;timestamp;temperature;humidity
12013;DHT22;6065;48.138;16.402;2023-04-23T00:00:46;14.40;98.70
12013;DHT22;6065;48.138;16.402;2023-04-23T00:03:13;14.30;98.90
12013;DHT22;6065;48.138;16.402;2023-04-23T00:05:41;14.30;99.00
12013;DHT22;6065;48.138;16.402;2023-04-23T00:08:10;14.20;99.00
12013;DHT22;6065;48.138;16.402;2023-04-23T00:10:37;14.20;99.00
12013;DHT22;6065;48.138;16.402;2023-04-23T00:13:04;14.20;99.20
12013;DHT22;6065;48.138;16.402;2023-04-23T00:15:31;14.10;99.30
12013;DHT22;6065;48.138;16.402;2023-04-23T00:17:58;14.00;99.40
12013;DHT22;6065;48.138;16.402;2023-04-23T00:20:24;14.00;99.50
12013;DHT22;6065;48.138;16.402;2023-04-23T00:22:51;14.00;99.50
12013;DHT22;6065;48.138;16.402;2023-04-23T00:25:19;13.90;99.40
12013;DHT22;6065;48.138;16.402;2023-04-23T00:27:46;13.90;99.50
12013;DHT22;6065;48.138;16.402;2023-04-23T00:30:13;13.90;99.50
12013;DHT22;6065;48.138;16.402;2023-04-23T00:32:41;13.90;99.50
12013;DHT22;6065;48.138;16.402;2023-04-23T00:35:07;13.80;99.50
12013;DHT22;6065;48.138;16.402;2023-04-23T00:37:34;13.90;99.50
12013;DHT22;6065;48.138;16.402;2023-04-23T00:40:01;13.80;99.60
12013;DHT22;6065;48.138;16.402;2023-04-23T00:42:30;13.80;99.60
12013;DHT22;6065;48.138;16.402;2023-04-23T00:44:57;13.80;99.80
12013;DHT22;6065;48.138;16.402;2023-04-23T00:47:25;13.70;99.80
12013;DHT22;6065;48.138;16.402;2023-04-23T00:49:54;13.70;99.80
12013;DHT22;6065;48.138;16.402;2023-04-23T00:52:21;13.70;99.80
12013;DHT22;6065;48.138;16.402;2023-04-23T00:54:48;13.70;99.80
12013;DHT22;6065;48.138;16.402;2023-04-23T00:57:14;13.70;99.80
12013;DHT22;6065;48.138;16.402;2023-04-23T00:59:43;13.70;99.90
12013;DHT22;6065;48.138;16.402;2023-04-23T01:02:10;13.60;99.90
12013;DHT22;6065;48.138;16.402;2023-04-23T01:04:37;13.60;99.90
12013;DHT22;6065;48.138;16.402;2023-04-23T01:07:04;13.60;99.90
12013;DHT22;6065;48.138;16.402;2023-04-23T01:09:31;13.50;99.90
12013;DHT22;6065;48.138;16.402;2023-04-23T01:11:58;13.60;99.90
12013;DHT22;6065;48.138;16.402;2023-04-23T01:14:26;13.50;99.90
12013;DHT22;6065;48.138;16.402;2023-04-23T01:16:54;13.50;99.90
12013;DHT22;6065;48.138;16.402;2023-04-23T01:19:22;13.50;99.90
12013;DHT22;6065;48.138;16.402;2023-04-23T01:21:49;13.50;99.90
12013;DHT22;6065;48.138;16.402;2023-04-23T01:24:17;13.50;99.90
12013;DHT22;6065;48.138;16.402;2023-04-23T01:26:44;13.50;99.90
12013;DHT22;6065;48.138;16.402;2023-04-23T01:29:11;13.50;99.90
12013;DHT22;6065;48.138;16.402;2023-04-23T01:31:38;13.40;99.90
12013;DHT22;6065;48.138;16.402;2023-04-23T01:34:05;13.40;99.90
12013;DHT22;6065;48.138;16.402;2023-04-23T01:36:32;13.40;99.90
12013;DHT22;6065;48.138;16.402;2023-04-23T01:38:59;13.40;99.90
12013;DHT22;6065;48.138;16.402;2023-04-23T01:41:27;13.40;99.90
12013;DHT22;6065;48.138;16.402;2023-04-23T01:43:54;13.30;99.90
12013;DHT22;6065;48.138;16.402;2023-04-23T01:46:21;13.40;99.90
12013;DHT22;6065;48.138;16.402;2023-04-23T01:48:48;13.40;99.90
12013;DHT22;6065;48.138;16.402;2023-04-23T01:51:14;13.40;99.90
12013;DHT22;6065;48.138;16.402;2023-04-23T01:53:41;13.40;99.90
12013;DHT22;6065;48.138;16.402;2023-04-23T01:56:08;13.40;99.90
12013;DHT22;6065;48.138;16.402;2023-04-23T01:58:36;13.40;99.90
12013;DHT22;6065;48.138;16.402;2023-04-23T02:01:03;13.40;99.90
12013;DHT22;6065;48.138;16.402;2023-04-23T02:03:30;13.40;99.90
12013;DHT22;6065;48.138;16.402;2023-04-23T02:05:58;13.30;99.90
12013;DHT22;6065;48.138;16.402;2023-04-23T02:08:25;13.30;99.90
12013;DHT22;6065;48.138;16.402;2023-04-23T02:10:52;13.20;99.90
12013;DHT22;6065;48.138;16.402;2023-04-23T02:13:19;13.20;99.90
12013;DHT22;6065;48.138;16.402;2023-04-23T02:15:47;13.30;99.90
12013;DHT22;6065;48.138;16.402;2023-04-23T02:18:13;13.20;99.90
12013;DHT22;6065;48.138;16.402;2023-04-23T02:20:40;13.30;99.90
12013;DHT22;6065;48.138;16.402;2023-04-23T02:23:08;13.30;99.90
12013;DHT22;6065;48.138;16.402;2023-04-23T02:25:35;13.30;99.90
12013;DHT22;6065;48.138;16.402;2023-04-23T02:28:02;13.30;99.90
12013;DHT22;6065;48.138;16.402;2023-04-23T02:30:31;13.20;99.90
12013;DHT22;6065;48.138;16.402;2023-04-23T02:32:59;13.10;99.90
12013;DHT22;6065;48.138;16.402;2023-04-23T02:35:26;13.00;99.90
12013;DHT22;6065;48.138;16.402;2023-04-23T02:37:52;13.00;99.90
12013;DHT22;6065;48.138;16.402;2023-04-23T02:40:19;13.00;99.90
12013;DHT22;6065;48.138;16.402;2023-04-23T02:42:46;12.90;99.90
12013;DHT22;6065;48.138;16.402;2023-04-23T02:45:13;12.90;99.90
12013;DHT22;6065;48.138;16.402;2023-04-23T02:47:39;13.00;99.90
12013;DHT22;6065;48.138;16.402;2023-04-23T02:50:08;13.00;99.90
12013;DHT22;6065;48.138;16.402;2023-04-23T02:52:35;12.90;99.90
12013;DHT22;6065;48.138;16.402;2023-04-23T02:55:02;12.80;99.90
12013;DHT22;6065;48.138;16.402;2023-04-23T02:57:28;12.80;99.90
12013;DHT22;6065;48.138;16.402;2023-04-23T02:59:55;12.70;99.90
12013;DHT22;6065;48.138;16.402;2023-04-23T03:02:22;12.70;99.90
12013;DHT22;6065;48.138;16.402;2023-04-23T03:04:48;12.60;99.90
12013;DHT22;6065;48.138;16.402;2023-04-23T03:07:17;12.60;99.90
12013;DHT22;6065;48.138;16.402;2023-04-23T03:09:43;12.60;99.90
12013;DHT22;6065;48.138;16.402;2023-04-23T03:12:10;12.60;99.90
12013;DHT22;6065;48.138;16.402;2023-04-23T03:14:37;12.60;99.90
12013;DHT22;6065;48.138;16.402;2023-04-23T03:17:03;12.60;99.90
12013;DHT22;6065;48.138;16.402;2023-04-23T03:19:30;12.60;99.90
12013;DHT22;6065;48.138;16.402;2023-04-23T03:21:57;12.50;99.90
12013;DHT22;6065;48.138;16.402;2023-04-23T03:24:25;12.50;99.90
12013;DHT22;6065;48.138;16.402;2023-04-23T03:26:52;12.50;99.90
12013;DHT22;6065;48.138;16.402;2023-04-23T03:29:18;12.40;99.90
12013;DHT22;6065;48.138;16.402;2023-04-23T03:31:45;12.40;99.90
12013;DHT22;6065;48.138;16.402;2023-04-23T03:34:12;12.40;99.90
12013;DHT22;6065;48.138;16.402;2023-04-23T03:36:39;12.30;99.90
12013;DHT22;6065;48.138;16.402;2023-04-23T03:39:05;12.20;99.90
12013;DHT22;6065;48.138;16.402;2023-04-23T03:41:34;12.20;99.90
12013;DHT22;6065;48.138;16.402;2023-04-23T03:44:00;12.20;99.90
12013;DHT22;6065;48.138;16.402;2023-04-23T03:46:27;12.20;99.90
12013;DHT22;6065;48.138;16.402;2023-04-23T03:48:54;12.20;99.90
12013;DHT22;6065;48.138;16.402;2023-04-23T03:51:20;12.20;99.90
12013;DHT22;6065;48.138;16.402;2023-04-23T03:53:47;12.20;99.90
12013;DHT22;6065;48.138;16.402;2023-04-23T03:56:14;12.10;99.90
12013;DHT22;6065;48.138;16.402;2023-04-23T03:58:42;12.20;99.90
12013;DHT22;6065;48.138;16.402;2023-04-23T04:01:09;12.30;99.90
12013;DHT22;6065;48.138;16.402;2023-04-23T04:03:35;12.20;99.90
12013;DHT22;6065;48.138;16.402;2023-04-23T04:06:02;12.10;99.90
12013;DHT22;6065;48.138;16.402;2023-04-23T04:08:29;12.00;99.90
12013;DHT22;6065;48.138;16.402;2023-04-23T04:10:57;12.00;99.90
12013;DHT22;6065;48.138;16.402;2023-04-23T04:13:23;12.00;99.90
12013;DHT22;6065;48.138;16.402;2023-04-23T04:15:51;12.00;99.90
12013;DHT22;6065;48.138;16.402;2023-04-23T04:18:18;12.10;99.90
12013;DHT22;6065;48.138;16.402;2023-04-23T04:20:45;12.10;99.90
12013;DHT22;6065;48.138;16.402;2023-04-23T04:23:11;12.20;99.90
12013;DHT22;6065;48.138;16.402;2023-04-23T04:25:38;12.20;99.90
12013;DHT22;6065;48.138;16.402;2023-04-23T04:28:05;12.10;99.90
12013;DHT22;6065;48.138;16.402;2023-04-23T04:30:33;12.20;99.90
12013;DHT22;6065;48.138;16.402;2023-04-23T04:33:01;12.20;99.90
12013;DHT22;6065;48.138;16.402;2023-04-23T04:35:28;12.20;99.90
12013;DHT22;6065;48.138;16.402;2023-04-23T04:37:55;12.20;99.90
12013;DHT22;6065;48.138;16.402;2023-04-23T04:40:23;12.20;99.90
12013;DHT22;6065;48.138;16.402;2023-04-23T04:42:50;12.20;99.90
12013;DHT22;6065;48.138;16.402;2023-04-23T04:45:17;12.20;99.90
12013;DHT22;6065;48.138;16.402;2023-04-23T04:47:44;12.20;99.90
12013;DHT22;6065;48.138;16.402;2023-04-23T04:50:12;12.20;99.90
12013;DHT22;6065;48.138;16.402;2023-04-23T04:52:38;12.20;99.90
12013;DHT22;6065;48.138;16.402;2023-04-23T04:55:05;12.30;99.90
12013;DHT22;6065;48.138;16.402;2023-04-23T04:57:32;12.30;99.90
12013;DHT22;6065;48.138;16.402;2023-04-23T05:00:00;12.30;99.90
12013;DHT22;6065;48.138;16.402;2023-04-23T05:02:26;12.30;99.90
12013;DHT22;6065;48.138;16.402;2023-04-23T05:04:53;12.30;99.90
12013;DHT22;6065;48.138;16.402;2023-04-23T05:07:21;12.30;99.90
12013;DHT22;6065;48.138;16.402;2023-04-23T05:09:48;12.30;99.90
12013;DHT22;6065;48.138;16.402;2023-04-23T05:12:14;12.30;99.90
12013;DHT22;6065;48.138;16.402;2023-04-23T05:14:41;12.30;99.90
12013;DHT22;6065;48.138;16.402;2023-04-23T05:17:08;12.30;99.90
12013;DHT22;6065;48.138;16.402;2023-04-23T05:19:35;12.40;99.90
12013;DHT22;6065;48.138;16.402;2023-04-23T05:22:02;12.40;99.90
12013;DHT22;6065;48.138;16.402;2023-04-23T05:24:30;12.50;99.90
12013;DHT22;6065;48.138;16.402;2023-04-23T05:26:57;12.50;99.90
12013;DHT22;6065;48.138;16.402;2023-04-23T05:29:24;12.50;99.90
12013;DHT22;6065;48.138;16.402;2023-04-23T05:31:50;12.50;99.90
12013;DHT22;6065;48.138;16.402;2023-04-23T05:34:17;12.50;99.90
12013;DHT22;6065;48.138;16.402;2023-04-23T05:36:44;12.50;99.90
12013;DHT22;6065;48.138;16.402;2023-04-23T05:39:11;12.60;99.90
12013;DHT22;6065;48.138;16.402;2023-04-23T05:41:39;12.50;99.90
12013;DHT22;6065;48.138;16.402;2023-04-23T05:44:05;12.50;99.90
12013;DHT22;6065;48.138;16.402;2023-04-23T05:46:32;12.50;99.90
12013;DHT22;6065;48.138;16.402;2023-04-23T05:48:59;12.60;99.90
12013;DHT22;6065;48.138;16.402;2023-04-23T05:51:26;12.60;99.90
12013;DHT22;6065;48.138;16.402;2023-04-23T05:53:53;12.70;99.90
12013;DHT22;6065;48.138;16.402;2023-04-23T05:56:20;12.80;99.90
12013;DHT22;6065;48.138;16.402;2023-04-23T05:58:48;12.80;99.90
12013;DHT22;6065;48.138;16.402;2023-04-23T06:01:14;12.80;99.90
12013;DHT22;6065;48.138;16.402;2023-04-23T06:03:41;12.80;99.90
12013;DHT22;6065;48.138;16.402;2023-04-23T06:06:09;12.70;99.90
12013;DHT22;6065;48.138;16.402;2023-04-23T06:08:36;12.70;99.90
12013;DHT22;6065;48.138;16.402;2023-04-23T06:11:03;12.70;99.90
12013;DHT22;6065;48.138;16.402;2023-04-23T06:13:30;12.80;99.90
12013;DHT22;6065;48.138;16.402;2023-04-23T06:15:58;12.80;99.90
12013;DHT22;6065;48.138;16.402;2023-04-23T06:18:24;12.80;99.90
12013;DHT22;6065;48.138;16.402;2023-04-23T06:20:51;12.90;99.90
12013;DHT22;6065;48.138;16.402;2023-04-23T06:23:18;12.90;99.90
12013;DHT22;6065;48.138;16.402;2023-04-23T06:25:45;12.90;99.90
12013;DHT22;6065;48.138;16.402;2023-04-23T06:28:12;12.90;99.90
12013;DHT22;6065;48.138;16.402;2023-04-23T06:30:38;13.00;99.90
12013;DHT22;6065;48.138;16.402;2023-04-23T06:33:07;13.20;99.90
12013;DHT22;6065;48.138;16.402;2023-04-23T06:35:33;13.20;99.90
12013;DHT22;6065;48.138;16.402;2023-04-23T06:38:00;13.30;99.90
12013;DHT22;6065;48.138;16.402;2023-04-23T06:40:27;13.40;99.90
12013;DHT22;6065;48.138;16.402;2023-04-23T06:42:53;13.40;99.90
12013;DHT22;6065;48.138;16.402;2023-04-23T06:45:20;13.50;99.90
12013;DHT22;6065;48.138;16.402;2023-04-23T06:47:47;13.60;99.90
12013;DHT22;6065;48.138;16.402;2023-04-23T06:50:15;13.70;99.90
12013;DHT22;6065;48.138;16.402;2023-04-23T06:52:42;13.70;99.90
12013;DHT22;6065;48.138;16.402;2023-04-23T06:55:09;13.70;99.90
12013;DHT22;6065;48.138;16.402;2023-04-23T06:57:36;13.80;99.90
12013;DHT22;6065;48.138;16.402;2023-04-23T07:00:02;13.80;99.90
12013;DHT22;6065;48.138;16.402;2023-04-23T07:02:31;13.90;99.90
12013;DHT22;6065;48.138;16.402;2023-04-23T07:04:57;13.90;99.90
12013;DHT22;6065;48.138;16.402;2023-04-23T07:07:25;14.00;99.90
12013;DHT22;6065;48.138;16.402;2023-04-23T07:09:52;14.10;99.90
12013;DHT22;6065;48.138;16.402;2023-04-23T07:12:19;14.20;99.90
12013;DHT22;6065;48.138;16.402;2023-04-23T07:14:45;14.20;99.90
12013;DHT22;6065;48.138;16.402;2023-04-23T07:17:12;14.30;99.90
12013;DHT22;6065;48.138;16.402;2023-04-23T07:19:39;14.30;99.90
12013;DHT22;6065;48.138;16.402;2023-04-23T07:22:06;14.40;99.90
12013;DHT22;6065;48.138;16.402;2023-04-23T07:24:34;14.40;99.90
12013;DHT22;6065;48.138;16.402;2023-04-23T07:27:01;14.50;99.90
12013;DHT22;6065;48.138;16.402;2023-04-23T07:29:28;14.60;99.90
12013;DHT22;6065;48.138;16.402;2023-04-23T07:31:55;14.60;99.90
12013;DHT22;6065;48.138;16.402;2023-04-23T07:34:22;14.70;99.90
12013;DHT22;6065;48.138;16.402;2023-04-23T07:36:48;14.80;99.90
12013;DHT22;6065;48.138;16.402;2023-04-23T07:39:16;14.90;99.90
12013;DHT22;6065;48.138;16.402;2023-04-23T07:41:44;15.00;99.90
12013;DHT22;6065;48.138;16.402;2023-04-23T07:44:11;15.20;99.90
12013;DHT22;6065;48.138;16.402;2023-04-23T07:46:39;15.20;99.90
12013;DHT22;6065;48.138;16.402;2023-04-23T07:49:05;15.30;99.90
12013;DHT22;6065;48.138;16.402;2023-04-23T07:51:32;15.30;99.90
12013;DHT22;6065;48.138;16.402;2023-04-23T07:54:00;15.40;99.90
12013;DHT22;6065;48.138;16.402;2023-04-23T07:56:27;15.40;99.90
12013;DHT22;6065;48.138;16.402;2023-04-23T07:58:58;15.50;99.90
12013;DHT22;6065;48.138;16.402;2023-04-23T08:01:24;15.60;99.90
12013;DHT22;6065;48.138;16.402;2023-04-23T08:03:51;15.60;99.90
12013;DHT22;6065;48.138;16.402;2023-04-23T08:06:20;15.70;99.90
12013;DHT22;6065;48.138;16.402;2023-04-23T08:08:47;15.70;99.90
12013;DHT22;6065;48.138;16.402;2023-04-23T08:11:14;15.80;99.90
12013;DHT22;6065;48.138;16.402;2023-04-23T08:13:41;15.90;99.90
12013;DHT22;6065;48.138;16.402;2023-04-23T08:16:09;16.00;99.90
12013;DHT22;6065;48.138;16.402;2023-04-23T08:18:36;16.10;99.90
12013;DHT22;6065;48.138;16.402;2023-04-23T08:21:02;16.20;99.90
12013;DHT22;6065;48.138;16.402;2023-04-23T08:23:29;16.30;99.90
12013;DHT22;6065;48.138;16.402;2023-04-23T08:25:56;16.30;99.90
12013;DHT22;6065;48.138;16.402;2023-04-23T08:28:23;16.40;99.90
12013;DHT22;6065;48.138;16.402;2023-04-23T08:30:49;16.50;99.90
12013;DHT22;6065;48.138;16.402;2023-04-23T08:33:17;16.60;99.90
12013;DHT22;6065;48.138;16.402;2023-04-23T08:35:45;16.60;99.90
12013;DHT22;6065;48.138;16.402;2023-04-23T08:38:11;16.70;99.90
12013;DHT22;6065;48.138;16.402;2023-04-23T08:40:38;16.80;99.90
12013;DHT22;6065;48.138;16.402;2023-04-23T08:43:08;16.80;99.90
12013;DHT22;6065;48.138;16.402;2023-04-23T08:45:36;16.90;99.90
12013;DHT22;6065;48.138;16.402;2023-04-23T08:48:06;16.90;99.90
12013;DHT22;6065;48.138;16.402;2023-04-23T08:50:34;16.90;99.90
12013;DHT22;6065;48.138;16.402;2023-04-23T08:53:02;16.90;99.90
12013;DHT22;6065;48.138;16.402;2023-04-23T08:55:30;16.90;99.90
12013;DHT22;6065;48.138;16.402;2023-04-23T08:57:59;16.90;99.90
12013;DHT22;6065;48.138;16.402;2023-04-23T09:00:27;16.90;99.90
12013;DHT22;6065;48.138;16.402;2023-04-23T09:02:54;17.00;99.90
12013;DHT22;6065;48.138;16.402;2023-04-23T09:05:21;17.00;99.90
12013;DHT22;6065;48.138;16.402;2023-04-23T09:07:49;17.10;99.90
12013;DHT22;6065;48.138;16.402;2023-04-23T09:10:17;17.20;99.90
12013;DHT22;6065;48.138;16.402;2023-04-23T09:12:44;17.30;99.90
12013;DHT22;6065;48.138;16.402;2023-04-23T09:15:12;17.40;99.90
12013;DHT22;6065;48.138;16.402;2023-04-23T09:17:39;17.50;99.90
12013;DHT22;6065;48.138;16.402;2023-04-23T09:20:07;17.50;99.90
12013;DHT22;6065;48.138;16.402;2023-04-23T09:22:36;17.70;99.90
12013;DHT22;6065;48.138;16.402;2023-04-23T09:25:05;17.90;99.80
12013;DHT22;6065;48.138;16.402;2023-04-23T09:27:32;18.10;99.80
12013;DHT22;6065;48.138;16.402;2023-04-23T09:29:59;18.10;99.60
12013;DHT22;6065;48.138;16.402;2023-04-23T09:32:32;18.10;99.10
12013;DHT22;6065;48.138;16.402;2023-04-23T09:35:01;18.10;99.50
12013;DHT22;6065;48.138;16.402;2023-04-23T09:37:27;18.20;99.30
12013;DHT22;6065;48.138;16.402;2023-04-23T09:39:57;18.30;99.40
12013;DHT22;6065;48.138;16.402;2023-04-23T09:42:25;18.30;99.50
12013;DHT22;6065;48.138;16.402;2023-04-23T09:44:55;18.50;98.70
12013;DHT22;6065;48.138;16.402;2023-04-23T09:47:23;18.60;98.40
12013;DHT22;6065;48.138;16.402;2023-04-23T09:49:50;18.70;98.30
12013;DHT22;6065;48.138;16.402;2023-04-23T09:52:17;18.80;98.70
12013;DHT22;6065;48.138;16.402;2023-04-23T09:54:45;18.90;98.00
12013;DHT22;6065;48.138;16.402;2023-04-23T09:57:12;18.90;98.50
12013;DHT22;6065;48.138;16.402;2023-04-23T09:59:40;19.00;98.00
12013;DHT22;6065;48.138;16.402;2023-04-23T10:02:07;19.10;98.60
12013;DHT22;6065;48.138;16.402;2023-04-23T10:04:35;19.10;98.20
12013;DHT22;6065;48.138;16.402;2023-04-23T10:07:02;19.20;97.90
12013;DHT22;6065;48.138;16.402;2023-04-23T10:09:29;19.20;97.70
12013;DHT22;6065;48.138;16.402;2023-04-23T10:11:56;19.30;97.80
12013;DHT22;6065;48.138;16.402;2023-04-23T10:14:23;19.30;98.10
12013;DHT22;6065;48.138;16.402;2023-04-23T10:16:53;19.40;97.80
12013;DHT22;6065;48.138;16.402;2023-04-23T10:19:22;19.40;97.50
12013;DHT22;6065;48.138;16.402;2023-04-23T10:21:49;19.50;98.30
12013;DHT22;6065;48.138;16.402;2023-04-23T10:24:18;19.60;98.00
12013;DHT22;6065;48.138;16.402;2023-04-23T10:26:46;19.60;97.70
12013;DHT22;6065;48.138;16.402;2023-04-23T10:29:13;19.70;98.00
12013;DHT22;6065;48.138;16.402;2023-04-23T10:31:41;19.80;97.80
12013;DHT22;6065;48.138;16.402;2023-04-23T10:34:09;19.90;97.50
12013;DHT22;6065;48.138;16.402;2023-04-23T10:36:36;20.10;97.40
12013;DHT22;6065;48.138;16.402;2023-04-23T10:39:03;20.20;97.20
12013;DHT22;6065;48.138;16.402;2023-04-23T10:41:34;20.30;96.30
12013;DHT22;6065;48.138;16.402;2023-04-23T10:44:01;20.30;97.20
12013;DHT22;6065;48.138;16.402;2023-04-23T10:46:28;20.40;96.30
12013;DHT22;6065;48.138;16.402;2023-04-23T10:49:05;20.50;97.10
12013;DHT22;6065;48.138;16.402;2023-04-23T10:51:33;20.40;96.80
12013;DHT22;6065;48.138;16.402;2023-04-23T10:54:01;20.60;96.40
12013;DHT22;6065;48.138;16.402;2023-04-23T10:56:28;20.60;97.00
12013;DHT22;6065;48.138;16.402;2023-04-23T10:58:54;20.70;96.50
12013;DHT22;6065;48.138;16.402;2023-04-23T11:01:22;20.80;96.30
12013;DHT22;6065;48.138;16.402;2023-04-23T11:03:50;20.90;96.80
12013;DHT22;6065;48.138;16.402;2023-04-23T11:06:18;21.00;96.00
12013;DHT22;6065;48.138;16.402;2023-04-23T11:08:53;21.00;96.40
12013;DHT22;6065;48.138;16.402;2023-04-23T11:11:23;21.10;96.10
12013;DHT22;6065;48.138;16.402;2023-04-23T11:13:50;21.30;95.60
12013;DHT22;6065;48.138;16.402;2023-04-23T11:16:20;21.40;96.30
12013;DHT22;6065;48.138;16.402;2023-04-23T11:18:54;21.50;95.80
12013;DHT22;6065;48.138;16.402;2023-04-23T11:21:20;21.60;95.10
12013;DHT22;6065;48.138;16.402;2023-04-23T11:23:47;21.60;94.70
12013;DHT22;6065;48.138;16.402;2023-04-23T11:26:16;21.60;94.90
12013;DHT22;6065;48.138;16.402;2023-04-23T11:28:43;21.60;95.10
12013;DHT22;6065;48.138;16.402;2023-04-23T11:31:10;21.70;95.10
12013;DHT22;6065;48.138;16.402;2023-04-23T11:33:37;21.80;94.60
12013;DHT22;6065;48.138;16.402;2023-04-23T11:36:04;21.90;95.20
12013;DHT22;6065;48.138;16.402;2023-04-23T11:38:31;21.80;94.30
12013;DHT22;6065;48.138;16.402;2023-04-23T11:41:00;21.80;95.10
12013;DHT22;6065;48.138;16.402;2023-04-23T11:43:28;21.90;94.50
12013;DHT22;6065;48.138;16.402;2023-04-23T11:45:55;22.00;94.20
12013;DHT22;6065;48.138;16.402;2023-04-23T11:48:23;22.00;94.80
12013;DHT22;6065;48.138;16.402;2023-04-23T11:50:50;22.10;94.60
12013;DHT22;6065;48.138;16.402;2023-04-23T11:53:18;22.20;95.00
12013;DHT22;6065;48.138;16.402;2023-04-23T11:55:48;22.40;94.80
12013;DHT22;6065;48.138;16.402;2023-04-23T11:58:16;22.50;94.90
12013;DHT22;6065;48.138;16.402;2023-04-23T12:00:44;22.50;94.40
12013;DHT22;6065;48.138;16.402;2023-04-23T12:03:11;22.50;94.30
12013;DHT22;6065;48.138;16.402;2023-04-23T12:05:40;22.50;93.50
12013;DHT22;6065;48.138;16.402;2023-04-23T12:08:08;22.60;93.80
12013;DHT22;6065;48.138;16.402;2023-04-23T12:10:40;22.70;94.40
12013;DHT22;6065;48.138;16.402;2023-04-23T12:13:12;22.80;93.50
12013;DHT22;6065;48.138;16.402;2023-04-23T12:15:42;22.80;93.10
12013;DHT22;6065;48.138;16.402;2023-04-23T12:18:11;23.00;93.00
12013;DHT22;6065;48.138;16.402;2023-04-23T12:20:37;23.00;92.40
12013;DHT22;6065;48.138;16.402;2023-04-23T12:23:05;22.90;91.90
12013;DHT22;6065;48.138;16.402;2023-04-23T12:25:32;22.90;92.70
12013;DHT22;6065;48.138;16.402;2023-04-23T12:27:59;22.90;92.70
12013;DHT22;6065;48.138;16.402;2023-04-23T12:30:27;22.90;92.20
12013;DHT22;6065;48.138;16.402;2023-04-23T12:32:57;22.90;91.40
12013;DHT22;6065;48.138;16.402;2023-04-23T12:35:37;22.80;91.10
12013;DHT22;6065;48.138;16.402;2023-04-23T12:38:04;22.70;91.70
12013;DHT22;6065;48.138;16.402;2023-04-23T12:40:30;22.80;92.50
12013;DHT22;6065;48.138;16.402;2023-04-23T12:42:57;22.80;91.60
12013;DHT22;6065;48.138;16.402;2023-04-23T12:45:24;22.80;92.30
12013;DHT22;6065;48.138;16.402;2023-04-23T12:47:50;22.80;91.00
12013;DHT22;6065;48.138;16.402;2023-04-23T12:50:17;22.70;90.90
12013;DHT22;6065;48.138;16.402;2023-04-23T12:52:45;22.70;91.50
12013;DHT22;6065;48.138;16.402;2023-04-23T12:55:12;22.70;90.90
12013;DHT22;6065;48.138;16.402;2023-04-23T12:57:39;22.60;90.80
12013;DHT22;6065;48.138;16.402;2023-04-23T13:00:06;22.60;91.80
12013;DHT22;6065;48.138;16.402;2023-04-23T13:02:33;22.60;90.80
12013;DHT22;6065;48.138;16.402;2023-04-23T13:04:59;22.70;90.80
12013;DHT22;6065;48.138;16.402;2023-04-23T13:07:26;22.70;90.70
12013;DHT22;6065;48.138;16.402;2023-04-23T13:09:54;22.70;91.50
12013;DHT22;6065;48.138;16.402;2023-04-23T13:12:21;22.70;91.30
12013;DHT22;6065;48.138;16.402;2023-04-23T13:14:48;22.70;90.80
12013;DHT22;6065;48.138;16.402;2023-04-23T13:17:15;22.70;90.90
12013;DHT22;6065;48.138;16.402;2023-04-23T13:19:41;22.80;90.60
12013;DHT22;6065;48.138;16.402;2023-04-23T13:22:09;22.80;90.90
12013;DHT22;6065;48.138;16.402;2023-04-23T13:24:35;22.80;90.90
12013;DHT22;6065;48.138;16.402;2023-04-23T13:27:03;22.80;91.30
12013;DHT22;6065;48.138;16.402;2023-04-23T13:29:30;22.90;90.90
12013;DHT22;6065;48.138;16.402;2023-04-23T13:31:57;22.90;90.40
12013;DHT22;6065;48.138;16.402;2023-04-23T13:34:24;22.80;90.70
12013;DHT22;6065;48.138;16.402;2023-04-23T13:36:51;22.80;90.20
12013;DHT22;6065;48.138;16.402;2023-04-23T13:39:18;22.80;90.00
12013;DHT22;6065;48.138;16.402;2023-04-23T13:41:45;22.80;90.40
12013;DHT22;6065;48.138;16.402;2023-04-23T13:44:13;22.80;90.90
12013;DHT22;6065;48.138;16.402;2023-04-23T13:46:40;22.70;90.80
12013;DHT22;6065;48.138;16.402;2023-04-23T13:49:07;22.70;90.60
12013;DHT22;6065;48.138;16.402;2023-04-23T13:51:34;22.60;90.90
12013;DHT22;6065;48.138;16.402;2023-04-23T13:54:00;22.50;90.60
12013;DHT22;6065;48.138;16.402;2023-04-23T13:56:27;22.50;90.70
12013;DHT22;6065;48.138;16.402;2023-04-23T13:58:54;22.50;90.40
12013;DHT22;6065;48.138;16.402;2023-04-23T14:01:27;22.40;90.30
12013;DHT22;6065;48.138;16.402;2023-04-23T14:03:55;22.40;90.40
12013;DHT22;6065;48.138;16.402;2023-04-23T14:06:21;22.40;90.80
12013;DHT22;6065;48.138;16.402;2023-04-23T14:08:48;22.30;90.30
12013;DHT22;6065;48.138;16.402;2023-04-23T14:11:15;22.30;89.10
12013;DHT22;6065;48.138;16.402;2023-04-23T14:13:41;22.40;90.10
12013;DHT22;6065;48.138;16.402;2023-04-23T14:16:08;22.30;90.20
12013;DHT22;6065;48.138;16.402;2023-04-23T14:18:36;22.30;90.40
12013;DHT22;6065;48.138;16.402;2023-04-23T14:21:03;22.40;89.60
12013;DHT22;6065;48.138;16.402;2023-04-23T14:23:43;22.30;89.90
12013;DHT22;6065;48.138;16.402;2023-04-23T14:26:10;22.30;89.70
12013;DHT22;6065;48.138;16.402;2023-04-23T14:28:46;22.20;90.40
12013;DHT22;6065;48.138;16.402;2023-04-23T14:31:16;22.20;90.30
12013;DHT22;6065;48.138;16.402;2023-04-23T14:33:44;22.30;90.10
12013;DHT22;6065;48.138;16.402;2023-04-23T14:36:10;22.20;90.50
12013;DHT22;6065;48.138;16.402;2023-04-23T14:38:37;22.20;89.80
12013;DHT22;6065;48.138;16.402;2023-04-23T14:41:04;22.10;90.00
12013;DHT22;6065;48.138;16.402;2023-04-23T14:43:31;22.20;89.20
12013;DHT22;6065;48.138;16.402;2023-04-23T14:45:58;22.20;90.00
12013;DHT22;6065;48.138;16.402;2023-04-23T14:48:25;22.20;90.60
12013;DHT22;6065;48.138;16.402;2023-04-23T14:50:53;22.20;90.90
12013;DHT22;6065;48.138;16.402;2023-04-23T14:53:20;22.10;90.40
12013;DHT22;6065;48.138;16.402;2023-04-23T14:55:47;22.20;88.80
12013;DHT22;6065;48.138;16.402;2023-04-23T14:58:13;22.10;90.10
12013;DHT22;6065;48.138;16.402;2023-04-23T15:00:42;22.20;89.80
12013;DHT22;6065;48.138;16.402;2023-04-23T15:03:09;22.10;89.20
12013;DHT22;6065;48.138;16.402;2023-04-23T15:05:36;22.10;89.60
12013;DHT22;6065;48.138;16.402;2023-04-23T15:08:05;22.10;90.00
12013;DHT22;6065;48.138;16.402;2023-04-23T15:10:32;22.10;89.20
12013;DHT22;6065;48.138;16.402;2023-04-23T15:13:02;22.10;89.80
12013;DHT22;6065;48.138;16.402;2023-04-23T15:15:36;22.00;89.90
12013;DHT22;6065;48.138;16.402;2023-04-23T15:18:03;22.00;90.40
12013;DHT22;6065;48.138;16.402;2023-04-23T15:20:30;21.90;91.20
12013;DHT22;6065;48.138;16.402;2023-04-23T15:22:56;21.90;91.20
12013;DHT22;6065;48.138;16.402;2023-04-23T15:25:25;21.90;91.20
12013;DHT22;6065;48.138;16.402;2023-04-23T15:27:51;21.90;90.10
12013;DHT22;6065;48.138;16.402;2023-04-23T15:30:22;21.90;90.10